Terminal Aerodrome Forecast
Issued by NWS

Home | Current Version | Previous Version | Text Only | Print | Product List | Glossary On
Versions: 1 2 3 4 5 6 7 8 9 10 11 12 13 14 15
535
FTUS41 KCAR 241744
TAFHUL
TAF
KHUL 241744Z 2418/2518 VRB02KT P6SM BKN200
     FM250000 VRB03KT P6SM VCSH BKN070
     FM250800 VRB02KT P6SM OVC070
     FM251100 02004KT P6SM OVC025
     FM251400 02005KT P6SM OVC040=

USA.gov is the U.S. government's official web portal to all federal, state and local government web resources and services.